sensor_id;sensor_type;location;lat;lon;timestamp;pressure;altitude;pressure_sealevel;temperature;humidity
79127;BME280;68528;48.814;8.904;2023-04-01T00:00:58;95052.28;;;6.57;78.46
79127;BME280;68528;48.814;8.904;2023-04-01T00:03:27;95056.94;;;6.56;78.90
79127;BME280;68528;48.814;8.904;2023-04-01T00:05:56;95053.00;;;6.54;79.54
79127;BME280;68528;48.814;8.904;2023-04-01T00:08:23;95048.78;;;6.56;78.88
79127;BME280;68528;48.814;8.904;2023-04-01T00:10:50;95056.94;;;6.56;79.72
79127;BME280;68528;48.814;8.904;2023-04-01T00:13:17;95053.03;;;6.57;79.51
79127;BME280;68528;48.814;8.904;2023-04-01T00:15:45;95049.19;;;6.58;79.06
79127;BME280;68528;48.814;8.904;2023-04-01T00:18:11;95056.94;;;6.56;79.54
79127;BME280;68528;48.814;8.904;2023-04-01T00:20:38;95053.03;;;6.57;78.85
79127;BME280;68528;48.814;8.904;2023-04-01T00:23:04;95046.84;;;6.57;78.21
79127;BME280;68528;48.814;8.904;2023-04-01T00:25:31;95040.97;;;6.55;78.58
79127;BME280;68528;48.814;8.904;2023-04-01T00:27:57;95052.56;;;6.48;79.08
79127;BME280;68528;48.814;8.904;2023-04-01T00:30:23;95051.78;;;6.48;79.31
79127;BME280;68528;48.814;8.904;2023-04-01T00:32:52;95058.34;;;6.47;78.85
79127;BME280;68528;48.814;8.904;2023-04-01T00:35:18;95062.25;;;6.46;78.98
79127;BME280;68528;48.814;8.904;2023-04-01T00:37:43;95070.88;;;6.55;78.68
79127;BME280;68528;48.814;8.904;2023-04-01T00:40:23;95075.63;;;6.61;78.12
79127;BME280;68528;48.814;8.904;2023-04-01T00:42:49;95061.75;;;6.70;77.57
79127;BME280;68528;48.814;8.904;2023-04-01T00:45:29;95062.94;;;6.72;77.53
79127;BME280;68528;48.814;8.904;2023-04-01T00:48:00;95064.56;;;6.77;77.22
79127;BME280;68528;48.814;8.904;2023-04-01T00:50:28;95073.50;;;6.77;77.34
79127;BME280;68528;48.814;8.904;2023-04-01T00:52:56;95064.97;;;6.79;76.88
79127;BME280;68528;48.814;8.904;2023-04-01T00:55:23;95065.03;;;6.86;76.81
79127;BME280;68528;48.814;8.904;2023-04-01T00:57:52;95057.59;;;6.79;77.41
79127;BME280;68528;48.814;8.904;2023-04-01T01:00:18;95064.47;;;6.70;78.57
79127;BME280;68528;48.814;8.904;2023-04-01T01:02:45;95057.41;;;6.65;78.45
79127;BME280;68528;48.814;8.904;2023-04-01T01:05:13;95058.97;;;6.63;78.21
79127;BME280;68528;48.814;8.904;2023-04-01T01:07:45;95065.53;;;6.62;78.65
79127;BME280;68528;48.814;8.904;2023-04-01T01:10:15;95051.53;;;6.60;78.55
79127;BME280;68528;48.814;8.904;2023-04-01T01:15:33;95067.06;;;6.59;78.24
79127;BME280;68528;48.814;8.904;2023-04-01T01:24:01;95050.03;;;6.66;78.03
79127;BME280;68528;48.814;8.904;2023-04-01T01:26:55;95057.06;;;6.67;77.82
79127;BME280;68528;48.814;8.904;2023-04-01T01:32:07;95054.78;;;6.72;78.49
79127;BME280;68528;48.814;8.904;2023-04-01T01:37:13;95066.34;;;6.66;79.42
79127;BME280;68528;48.814;8.904;2023-04-01T01:39:42;95071.78;;;6.62;79.82
79127;BME280;68528;48.814;8.904;2023-04-01T01:42:11;95070.16;;;6.58;79.90
79127;BME280;68528;48.814;8.904;2023-04-01T01:44:40;95073.25;;;6.56;81.11
79127;BME280;68528;48.814;8.904;2023-04-01T01:47:07;95059.16;;;6.47;81.47
79127;BME280;68528;48.814;8.904;2023-04-01T01:49:35;95070.03;;;6.47;81.13
79127;BME280;68528;48.814;8.904;2023-04-01T01:52:03;95069.22;;;6.47;80.67
79127;BME280;68528;48.814;8.904;2023-04-01T01:54:28;95059.66;;;6.56;79.72
79127;BME280;68528;48.814;8.904;2023-04-01T01:57:05;95056.56;;;6.58;80.17
79127;BME280;68528;48.814;8.904;2023-04-01T01:59:35;95049.50;;;6.53;80.03
79127;BME280;68528;48.814;8.904;2023-04-01T02:02:05;95060.78;;;6.55;79.26
79127;BME280;68528;48.814;8.904;2023-04-01T02:04:39;95069.78;;;6.59;80.21
79127;BME280;68528;48.814;8.904;2023-04-01T02:07:17;95064.63;;;6.51;81.29
79127;BME280;68528;48.814;8.904;2023-04-01T02:09:43;95066.94;;;6.49;81.36
79127;BME280;68528;48.814;8.904;2023-04-01T02:12:11;95063.03;;;6.46;81.00
79127;BME280;68528;48.814;8.904;2023-04-01T02:15:07;95050.16;;;6.43;80.62
79127;BME280;68528;48.814;8.904;2023-04-01T02:17:35;95064.56;;;6.44;80.23
79127;BME280;68528;48.814;8.904;2023-04-01T02:20:19;95061.78;;;6.40;80.25
79127;BME280;68528;48.814;8.904;2023-04-01T02:22:51;95055.16;;;6.38;80.62
79127;BME280;68528;48.814;8.904;2023-04-01T02:25:29;95058.59;;;6.34;79.88
79127;BME280;68528;48.814;8.904;2023-04-01T02:27:57;95053.25;;;6.42;78.85
79127;BME280;68528;48.814;8.904;2023-04-01T02:30:26;95061.78;;;6.40;78.98
79127;BME280;68528;48.814;8.904;2023-04-01T02:32:53;95056.06;;;6.49;77.70
79127;BME280;68528;48.814;8.904;2023-04-01T02:35:19;95055.59;;;6.43;78.99
79127;BME280;68528;48.814;8.904;2023-04-01T02:37:46;95067.59;;;6.39;78.76
79127;BME280;68528;48.814;8.904;2023-04-01T02:40:14;95060.59;;;6.38;78.57
79127;BME280;68528;48.814;8.904;2023-04-01T02:42:39;95056.75;;;6.42;78.04
79127;BME280;68528;48.814;8.904;2023-04-01T02:45:06;95060.66;;;6.45;77.62
79127;BME280;68528;48.814;8.904;2023-04-01T02:47:33;95062.97;;;6.43;77.42
79127;BME280;68528;48.814;8.904;2023-04-01T02:49:58;95050.53;;;6.42;77.38
79127;BME280;68528;48.814;8.904;2023-04-01T02:52:26;95051.69;;;6.41;77.71
79127;BME280;68528;48.814;8.904;2023-04-01T02:54:51;95063.72;;;6.40;77.38
79127;BME280;68528;48.814;8.904;2023-04-01T02:57:17;95064.88;;;6.39;78.00
79127;BME280;68528;48.814;8.904;2023-04-01T02:59:44;95069.94;;;6.40;77.47
79127;BME280;68528;48.814;8.904;2023-04-01T03:02:09;95056.75;;;6.42;77.24
79127;BME280;68528;48.814;8.904;2023-04-01T03:04:35;95062.16;;;6.39;78.05
79127;BME280;68528;48.814;8.904;2023-04-01T03:07:00;95069.06;;;6.32;79.16
79127;BME280;68528;48.814;8.904;2023-04-01T03:09:28;95071.28;;;6.23;79.82
79127;BME280;68528;48.814;8.904;2023-04-01T03:11:57;95063.50;;;6.22;79.98
79127;BME280;68528;48.814;8.904;2023-04-01T03:14:22;95064.97;;;6.16;80.42
79127;BME280;68528;48.814;8.904;2023-04-01T03:16:47;95055.56;;;6.10;81.06
79127;BME280;68528;48.814;8.904;2023-04-01T03:19:13;95056.66;;;6.05;80.48
79127;BME280;68528;48.814;8.904;2023-04-01T03:21:38;95061.75;;;6.10;80.38
79127;BME280;68528;48.814;8.904;2023-04-01T03:24:05;95063.31;;;6.08;80.56
79127;BME280;68528;48.814;8.904;2023-04-01T03:26:31;95068.66;;;6.04;80.70
79127;BME280;68528;48.814;8.904;2023-04-01T03:28:56;95056.25;;;6.03;79.98
79127;BME280;68528;48.814;8.904;2023-04-01T03:31:22;95058.13;;;5.99;80.94
79127;BME280;68528;48.814;8.904;2023-04-01T03:33:47;95058.06;;;5.96;80.71
79127;BME280;68528;48.814;8.904;2023-04-01T03:36:13;95056.91;;;5.93;81.14
79127;BME280;68528;48.814;8.904;2023-04-01T03:38:42;95058.19;;;6.03;80.52
79127;BME280;68528;48.814;8.904;2023-04-01T03:41:12;95051.50;;;5.97;81.19
79127;BME280;68528;48.814;8.904;2023-04-01T03:43:38;95053.84;;;5.98;80.90
79127;BME280;68528;48.814;8.904;2023-04-01T03:46:03;95049.09;;;5.92;80.78
79127;BME280;68528;48.814;8.904;2023-04-01T03:48:29;95039.00;;;5.92;80.80
79127;BME280;68528;48.814;8.904;2023-04-01T03:50:57;95049.50;;;5.94;79.90
79127;BME280;68528;48.814;8.904;2023-04-01T03:53:22;95041.41;;;5.97;80.18
79127;BME280;68528;48.814;8.904;2023-04-01T03:55:48;95042.91;;;5.91;81.03
79127;BME280;68528;48.814;8.904;2023-04-01T03:58:13;95046.06;;;5.97;80.45
79127;BME280;68528;48.814;8.904;2023-04-01T04:00:40;95039.81;;;5.93;81.03
79127;BME280;68528;48.814;8.904;2023-04-01T04:03:06;95042.94;;;5.95;80.10
79127;BME280;68528;48.814;8.904;2023-04-01T04:05:31;95043.72;;;5.95;80.69
79127;BME280;68528;48.814;8.904;2023-04-01T04:07:56;95037.53;;;5.98;79.99
79127;BME280;68528;48.814;8.904;2023-04-01T04:10:22;95035.72;;;6.06;79.17
79127;BME280;68528;48.814;8.904;2023-04-01T04:12:49;95026.78;;;6.05;79.07
79127;BME280;68528;48.814;8.904;2023-04-01T04:15:14;95036.44;;;6.03;79.33
79127;BME280;68528;48.814;8.904;2023-04-01T04:17:40;95038.31;;;5.99;79.30
79127;BME280;68528;48.814;8.904;2023-04-01T04:20:06;95036.75;;;5.98;79.52
79127;BME280;68528;48.814;8.904;2023-04-01T04:22:32;95042.91;;;5.91;80.63
79127;BME280;68528;48.814;8.904;2023-04-01T04:24:58;95044.44;;;5.92;80.83
79127;BME280;68528;48.814;8.904;2023-04-01T04:27:23;95036.59;;;5.87;81.35
79127;BME280;68528;48.814;8.904;2023-04-01T04:29:49;95033.41;;;5.82;82.37
79127;BME280;68528;48.814;8.904;2023-04-01T04:32:14;95034.91;;;5.79;81.63
79127;BME280;68528;48.814;8.904;2023-04-01T04:34:39;95042.72;;;5.81;81.94
79127;BME280;68528;48.814;8.904;2023-04-01T04:37:05;95025.22;;;5.78;81.78
79127;BME280;68528;48.814;8.904;2023-04-01T04:39:30;95028.59;;;5.72;82.14
79127;BME280;68528;48.814;8.904;2023-04-01T04:41:55;95030.47;;;5.68;82.32
79127;BME280;68528;48.814;8.904;2023-04-01T04:44:21;95032.53;;;5.74;82.63
79127;BME280;68528;48.814;8.904;2023-04-01T04:46:46;95028.63;;;5.75;82.33
79127;BME280;68528;48.814;8.904;2023-04-01T04:49:12;95033.25;;;5.71;82.25
79127;BME280;68528;48.814;8.904;2023-04-01T04:51:38;95032.81;;;5.69;82.55
79127;BME280;68528;48.814;8.904;2023-04-01T04:54:04;95025.81;;;5.68;82.71
79127;BME280;68528;48.814;8.904;2023-04-01T04:56:30;95019.66;;;5.71;82.26
79127;BME280;68528;48.814;8.904;2023-04-01T04:58:56;95021.59;;;5.71;82.39
79127;BME280;68528;48.814;8.904;2023-04-01T05:01:28;95017.72;;;5.72;82.21
79127;BME280;68528;48.814;8.904;2023-04-01T05:04:14;95026.34;;;5.77;81.55
79127;BME280;68528;48.814;8.904;2023-04-01T05:06:39;95027.19;;;5.81;81.04
79127;BME280;68528;48.814;8.904;2023-04-01T05:09:05;95015.16;;;5.82;80.26
79127;BME280;68528;48.814;8.904;2023-04-01T05:11:30;95020.72;;;5.89;79.55
79127;BME280;68528;48.814;8.904;2023-04-01T05:13:55;95014.09;;;5.87;80.02
79127;BME280;68528;48.814;8.904;2023-04-01T05:16:21;95023.81;;;5.88;80.13
79127;BME280;68528;48.814;8.904;2023-04-01T05:18:47;95021.88;;;5.88;80.44
79127;BME280;68528;48.814;8.904;2023-04-01T05:21:18;95026.59;;;5.91;80.40
79127;BME280;68528;48.814;8.904;2023-04-01T05:23:43;95015.28;;;5.89;81.02
79127;BME280;68528;48.814;8.904;2023-04-01T05:26:13;95022.72;;;5.92;80.41
79127;BME280;68528;48.814;8.904;2023-04-01T05:28:40;95024.28;;;5.93;81.43
79127;BME280;68528;48.814;8.904;2023-04-01T05:31:06;95013.03;;;5.95;81.02
79127;BME280;68528;48.814;8.904;2023-04-01T05:33:33;95008.41;;;5.95;80.79
79127;BME280;68528;48.814;8.904;2023-04-01T05:36:09;95005.72;;;5.99;80.64
79127;BME280;68528;48.814;8.904;2023-04-01T05:38:36;95008.97;;;6.08;80.21
79127;BME280;68528;48.814;8.904;2023-04-01T05:41:02;94998.56;;;6.17;78.35
79127;BME280;68528;48.814;8.904;2023-04-01T05:43:28;94991.28;;;6.24;79.03
79127;BME280;68528;48.814;8.904;2023-04-01T05:45:55;94995.56;;;6.25;79.14
79127;BME280;68528;48.814;8.904;2023-04-01T05:48:20;94998.28;;;6.25;78.51
79127;BME280;68528;48.814;8.904;2023-04-01T05:50:45;94995.28;;;6.34;77.86
79127;BME280;68528;48.814;8.904;2023-04-01T05:53:11;94998.06;;;6.38;77.84
79127;BME280;68528;48.814;8.904;2023-04-01T05:55:36;95000.81;;;6.41;79.03
79127;BME280;68528;48.814;8.904;2023-04-01T05:58:04;94994.69;;;6.48;77.39
79127;BME280;68528;48.814;8.904;2023-04-01T06:00:29;95003.34;;;6.57;76.95
79127;BME280;68528;48.814;8.904;2023-04-01T06:02:54;94998.75;;;6.68;76.62
79127;BME280;68528;48.814;8.904;2023-04-01T06:05:22;94998.47;;;6.76;76.84
79127;BME280;68528;48.814;8.904;2023-04-01T06:07:51;95007.81;;;6.79;76.71
79127;BME280;68528;48.814;8.904;2023-04-01T06:10:21;95005.91;;;6.79;76.82
79127;BME280;68528;48.814;8.904;2023-04-01T06:26:46;95009.91;;;6.56;79.11
79127;BME280;68528;48.814;8.904;2023-04-01T06:29:43;95003.22;;;6.46;80.12
79127;BME280;68528;48.814;8.904;2023-04-01T06:45:54;95020.22;;;6.40;82.24
79127;BME280;68528;48.814;8.904;2023-04-01T06:56:18;95017.81;;;6.34;82.11
79127;BME280;68528;48.814;8.904;2023-04-01T06:58:49;95017.00;;;6.30;82.95
79127;BME280;68528;48.814;8.904;2023-04-01T07:01:32;95013.91;;;6.32;83.58
79127;BME280;68528;48.814;8.904;2023-04-01T07:04:06;95010.06;;;6.37;82.98
79127;BME280;68528;48.814;8.904;2023-04-01T07:06:39;95015.41;;;6.29;83.39
79127;BME280;68528;48.814;8.904;2023-04-01T07:09:19;95014.69;;;6.32;83.24
79127;BME280;68528;48.814;8.904;2023-04-01T07:11:46;95019.34;;;6.32;83.02
79127;BME280;68528;48.814;8.904;2023-04-01T07:14:25;95023.22;;;6.31;83.34
79127;BME280;68528;48.814;8.904;2023-04-01T07:17:13;95024.44;;;6.33;82.53
79127;BME280;68528;48.814;8.904;2023-04-01T07:20:01;95026.63;;;6.24;83.51
79127;BME280;68528;48.814;8.904;2023-04-01T07:22:34;95018.91;;;6.26;83.03
79127;BME280;68528;48.814;8.904;2023-04-01T07:25:11;95020.03;;;6.25;83.24
79127;BME280;68528;48.814;8.904;2023-04-01T07:27:36;95030.97;;;6.29;83.73
79127;BME280;68528;48.814;8.904;2023-04-01T07:30:06;95031.81;;;6.37;83.17
79127;BME280;68528;48.814;8.904;2023-04-01T07:32:47;95031.41;;;6.34;84.07
79127;BME280;68528;48.814;8.904;2023-04-01T07:35:39;95036.56;;;6.43;82.83
79127;BME280;68528;48.814;8.904;2023-04-01T07:46:25;95041.47;;;6.64;82.94
79127;BME280;68528;48.814;8.904;2023-04-01T07:54:30;95043.19;;;6.79;84.33
79127;BME280;68528;48.814;8.904;2023-04-01T08:03:10;95050.94;;;6.77;82.92
79127;BME280;68528;48.814;8.904;2023-04-01T08:15:27;95047.97;;;6.89;83.72
79127;BME280;68528;48.814;8.904;2023-04-01T08:19:04;95049.88;;;6.85;83.42
79127;BME280;68528;48.814;8.904;2023-04-01T08:21:18;95056.47;;;6.84;82.81
79127;BME280;68528;48.814;8.904;2023-04-01T09:02:58;95050.97;;;7.17;83.10
79127;BME280;68528;48.814;8.904;2023-04-01T09:21:19;95066.59;;;7.67;78.94
79127;BME280;68528;48.814;8.904;2023-04-01T09:27:05;95064.97;;;7.59;78.94
79127;BME280;68528;48.814;8.904;2023-04-01T09:35:20;95073.88;;;7.56;79.27
79127;BME280;68528;48.814;8.904;2023-04-01T09:41:40;95066.72;;;7.38;78.85
79127;BME280;68528;48.814;8.904;2023-04-01T09:47:16;95076.28;;;7.61;78.20
79127;BME280;68528;48.814;8.904;2023-04-01T09:52:41;95064.19;;;7.59;78.70
79127;BME280;68528;48.814;8.904;2023-04-01T10:01:40;95076.50;;;7.93;76.43
79127;BME280;68528;48.814;8.904;2023-04-01T10:19:20;95086.78;;;8.86;74.14
79127;BME280;68528;48.814;8.904;2023-04-01T12:18:38;95147.69;;;9.00;70.07
79127;BME280;68528;48.814;8.904;2023-04-01T14:40:33;95205.88;;;8.46;73.61
79127;BME280;68528;48.814;8.904;2023-04-01T14:43:28;95208.22;;;8.51;74.00
79127;BME280;68528;48.814;8.904;2023-04-01T14:46:32;95207.44;;;8.47;74.89
79127;BME280;68528;48.814;8.904;2023-04-01T14:49:32;95206.63;;;8.47;74.25
79127;BME280;68528;48.814;8.904;2023-04-01T14:58:19;95213.66;;;8.48;74.43
79127;BME280;68528;48.814;8.904;2023-04-01T15:00:55;95217.28;;;8.62;75.42
79127;BME280;68528;48.814;8.904;2023-04-01T15:31:34;95242.81;;;8.37;72.84
79127;BME280;68528;48.814;8.904;2023-04-01T15:34:19;95238.53;;;8.36;73.53
79127;BME280;68528;48.814;8.904;2023-04-01T15:36:56;95244.78;;;8.40;73.17
79127;BME280;68528;48.814;8.904;2023-04-01T15:42:38;95252.22;;;8.43;72.44
79127;BME280;68528;48.814;8.904;2023-04-01T15:49:25;95263.53;;;8.45;71.61
79127;BME280;68528;48.814;8.904;2023-04-01T15:57:46;95255.72;;;8.40;71.00
79127;BME280;68528;48.814;8.904;2023-04-01T19:11:46;95425.00;;;5.99;83.05
79127;BME280;68528;48.814;8.904;2023-04-01T19:35:39;95425.06;;;6.03;82.81
79127;BME280;68528;48.814;8.904;2023-04-01T19:50:38;95434.56;;;6.12;83.93
79127;BME280;68528;48.814;8.904;2023-04-01T19:56:38;95442.28;;;6.10;83.93
79127;BME280;68528;48.814;8.904;2023-04-01T19:59:33;95437.28;;;6.12;84.69
79127;BME280;68528;48.814;8.904;2023-04-01T20:02:30;95436.06;;;6.10;84.96
79127;BME280;68528;48.814;8.904;2023-04-01T20:05:21;95435.28;;;6.09;84.23
79127;BME280;68528;48.814;8.904;2023-04-01T20:08:58;95444.66;;;6.12;84.50
79127;BME280;68528;48.814;8.904;2023-04-01T20:11:28;95440.00;;;6.12;84.91
79127;BME280;68528;48.814;8.904;2023-04-01T20:14:20;95448.59;;;6.14;84.84
79127;BME280;68528;48.814;8.904;2023-04-01T20:17:11;95436.34;;;6.05;85.21
79127;BME280;68528;48.814;8.904;2023-04-01T20:19:42;95450.56;;;5.98;85.68
79127;BME280;68528;48.814;8.904;2023-04-01T20:22:38;95459.03;;;5.93;85.71
79127;BME280;68528;48.814;8.904;2023-04-01T20:25:51;95469.75;;;5.86;85.03
79127;BME280;68528;48.814;8.904;2023-04-01T20:33:51;95470.09;;;5.85;85.78
79127;BME280;68528;48.814;8.904;2023-04-01T20:51:26;95476.53;;;5.61;86.14
79127;BME280;68528;48.814;8.904;2023-04-01T21:03:09;95485.16;;;5.47;87.25
79127;BME280;68528;48.814;8.904;2023-04-01T21:06:06;95494.09;;;5.48;87.10
79127;BME280;68528;48.814;8.904;2023-04-01T21:23:49;95521.06;;;5.56;86.53
79127;BME280;68528;48.814;8.904;2023-04-01T21:32:04;95518.97;;;5.50;87.03
79127;BME280;68528;48.814;8.904;2023-04-01T21:41:25;95530.94;;;5.65;85.03
79127;BME280;68528;48.814;8.904;2023-04-01T21:44:27;95527.72;;;5.59;84.97
79127;BME280;68528;48.814;8.904;2023-04-01T22:09:39;95547.63;;;5.98;83.69
79127;BME280;68528;48.814;8.904;2023-04-01T22:19:30;95549.84;;;5.92;83.57
79127;BME280;68528;48.814;8.904;2023-04-01T22:25:02;95548.56;;;6.05;82.92
79127;BME280;68528;48.814;8.904;2023-04-01T22:40:00;95558.41;;;5.94;82.91
79127;BME280;68528;48.814;8.904;2023-04-01T22:42:53;95565.06;;;5.81;83.56
79127;BME280;68528;48.814;8.904;2023-04-01T22:54:36;95566.44;;;5.40;85.46
79127;BME280;68528;48.814;8.904;2023-04-01T22:57:35;95556.91;;;5.31;85.57
79127;BME280;68528;48.814;8.904;2023-04-01T23:12:16;95561.63;;;5.34;85.46
79127;BME280;68528;48.814;8.904;2023-04-01T23:14:47;95572.75;;;5.29;85.56
79127;BME280;68528;48.814;8.904;2023-04-01T23:17:22;95573.44;;;5.26;85.58
79127;BME280;68528;48.814;8.904;2023-04-01T23:22:44;95583.84;;;5.24;86.03
79127;BME280;68528;48.814;8.904;2023-04-01T23:28:53;95589.72;;;5.10;86.63
79127;BME280;68528;48.814;8.904;2023-04-01T23:36:40;95597.16;;;4.98;87.27
79127;BME280;68528;48.814;8.904;2023-04-01T23:41:46;95595.56;;;4.97;87.01
79127;BME280;68528;48.814;8.904;2023-04-01T23:47:58;95612.03;;;5.04;86.65
79127;BME280;68528;48.814;8.904;2023-04-01T23:50:25;95602.22;;;4.99;86.85
79127;BME280;68528;48.814;8.904;2023-04-01T23:53:02;95612.03;;;5.04;87.14
79127;BME280;68528;48.814;8.904;2023-04-01T23:55:31;95610.56;;;5.06;86.95
